Time;durP1;ratioP1;P1;durP2;ratioP2;P2;SDS_P1;SDS_P2;PMS_P1;PMS_P2;Temp;Humidity;BMP_temperature;BMP_pressure;BME280_temperature;BME280_humidity;BME280_pressure;Samples;Min_cycle;Max_cycle;Signal;HPM_P1;HPM_P2
2022/05/02 00:01:57;;;;;;;3.67;2.63;;;;;;;;;;4991147;28;20062;-88
2022/05/02 00:04:24;;;;;;;2.95;1.92;;;;;;;;;;4990620;28;20036;-89
2022/05/02 00:06:49;;;;;;;3.45;2.00;;;;;;;;;;4990921;28;20029;-89
2022/05/02 00:09:16;;;;;;;6.75;2.78;;;;;;;;;;4992070;28;20034;-89
2022/05/02 00:11:41;;;;;;;3.92;2.38;;;;;;;;;;5000126;28;20403;-88
2022/05/02 00:14:08;;;;;;;3.83;2.00;;;;;;;;;;5007042;28;20026;-89
2022/05/02 00:16:35;;;;;;;7.45;2.70;;;;;;;;;;5006319;28;20028;-88
2022/05/02 00:19:01;;;;;;;3.55;1.80;;;;;;;;;;4991798;28;20042;-89
2022/05/02 00:21:27;;;;;;;2.67;2.00;;;;;;;;;;4992010;28;20117;-89
2022/05/02 00:23:53;;;;;;;6.78;2.78;;;;;;;;;;5012823;28;20046;-90
2022/05/02 00:26:19;;;;;;;3.47;2.40;;;;;;;;;;5007549;28;20033;-89
2022/05/02 00:28:47;;;;;;;2.83;2.05;;;;;;;;;;4991723;28;20034;-89
2022/05/02 00:31:13;;;;;;;4.25;3.50;;;;;;;;;;5003595;28;20077;-88
2022/05/02 00:33:39;;;;;;;4.90;2.55;;;;;;;;;;4994054;28;20401;-88
2022/05/02 00:36:05;;;;;;;3.85;2.67;;;;;;;;;;4993472;28;20117;-90
2022/05/02 00:38:31;;;;;;;3.58;2.15;;;;;;;;;;5005982;28;20031;-89
2022/05/02 00:40:58;;;;;;;6.38;2.42;;;9.60;80.70;;;;;;4991883;28;20026;-90
2022/05/02 00:43:24;;;;;;;3.88;2.13;;;;;;;;;;4997195;28;20062;-88
2022/05/02 00:45:50;;;;;;;4.55;2.13;;;;;;;;;;5004273;28;20080;-89
2022/05/02 00:48:16;;;;;;;5.40;2.17;;;;;;;;;;5004320;28;20038;-90
2022/05/02 00:50:47;;;;;;;9.25;2.92;;;;;;;;;;4998886;28;20030;-89
2022/05/02 00:53:15;;;;;;;4.72;2.20;;;9.00;84.00;;;;;;4995175;28;20026;-88
2022/05/02 00:55:42;;;;;;;3.63;2.55;;;;;;;;;;4994831;28;20033;-90
2022/05/02 00:58:08;;;;;;;4.70;2.40;;;;;;;;;;5013555;28;20069;-88
2022/05/02 01:00:36;;;;;;;2.58;1.85;;;;;;;;;;5007781;28;20494;-90
2022/05/02 01:03:03;;;;;;;5.10;2.97;;;;;;;;;;5011942;28;20030;-89
2022/05/02 01:05:30;;;;;;;2.45;1.95;;;;;;;;;;5007253;28;20058;-89
2022/05/02 01:07:56;;;;;;;9.25;4.25;;;;;;;;;;4994767;28;20042;-89
2022/05/02 01:10:23;;;;;;;6.70;2.60;;;;;;;;;;4993435;28;20030;-89
2022/05/02 01:12:49;;;;;;;3.43;2.83;;;;;;;;;;4995799;28;20026;-89
2022/05/02 01:15:16;;;;;;;4.63;3.08;;;;;;;;;;5006898;28;20026;-89
2022/05/02 01:17:43;;;;;;;3.70;2.47;;;;;;;;;;5005127;28;20038;-89
2022/05/02 01:20:12;;;;;;;5.97;2.97;;;;;;;;;;5011463;28;20600;-89
2022/05/02 01:22:38;;;;;;;5.15;2.35;;;;;;;;;;4994438;28;20109;-90
2022/05/02 01:25:04;;;;;;;3.08;2.40;;;;;;;;;;5010914;28;20491;-90
2022/05/02 01:27:30;;;;;;;3.08;2.33;;;;;;;;;;5012266;28;20643;-89
2022/05/02 01:29:56;;;;;;;3.80;2.40;;;;;;;;;;5005506;28;20038;-89
2022/05/02 01:32:22;;;;;;;5.65;2.80;;;;;;;;;;5011350;28;20034;-90
2022/05/02 01:34:48;;;;;;;5.65;2.85;;;;;;;;;;5012233;28;20476;-90
2022/05/02 01:37:14;;;;;;;4.55;2.22;;;;;;;;;;5012334;28;20061;-88
2022/05/02 01:39:42;;;;;;;2.70;2.10;;;8.90;84.40;;;;;;5008665;28;20033;-89
2022/05/02 01:42:08;;;;;;;5.47;2.78;;;;;;;;;;5003843;28;20056;-90
2022/05/02 01:44:35;;;;;;;6.40;2.35;;;;;;;;;;5011978;28;20452;-90
2022/05/02 01:47:01;;;;;;;5.35;2.03;;;;;;;;;;5012035;28;20030;-89
2022/05/02 01:49:27;;;;;;;4.40;2.45;;;;;;;;;;5012673;28;20025;-88
2022/05/02 01:51:53;;;;;;;5.30;2.45;;;;;;;;;;5013705;28;20029;-89
2022/05/02 01:54:19;;;;;;;3.90;2.25;;;;;;;;;;5007230;28;20562;-89
2022/05/02 01:56:46;;;;;;;5.43;3.13;;;;;;;;;;5010532;28;20034;-88
2022/05/02 01:59:12;;;;;;;6.40;3.25;;;;;;;;;;4997035;28;20053;-91
2022/05/02 02:01:38;;;;;;;3.33;2.58;;;;;;;;;;4994487;28;20468;-89
2022/05/02 02:06:50;;;;;;;4.25;3.13;;;;;;;;;;4998029;28;20057;-88
2022/05/02 02:09:16;;;;;;;4.65;2.67;;;;;;;;;;5001609;28;20040;-88
2022/05/02 02:11:42;;;;;;;4.40;2.38;;;;;;;;;;4995230;28;20031;-89
2022/05/02 02:14:08;;;;;;;5.90;3.53;;;;;;;;;;4995518;28;20029;-90
2022/05/02 02:16:34;;;;;;;4.63;2.28;;;;;;;;;;4993745;28;20030;-89
2022/05/02 02:19:00;;;;;;;3.50;2.30;;;;;;;;;;5003228;28;20517;-89
2022/05/02 02:21:27;;;;;;;4.78;2.97;;;;;;;;;;5006156;28;20041;-88
2022/05/02 02:23:53;;;;;;;4.68;2.60;;;;;;;;;;5008956;28;20124;-88
2022/05/02 02:26:19;;;;;;;5.10;2.88;;;;;;;;;;4995405;28;20034;-89
2022/05/02 02:28:45;;;;;;;5.43;2.33;;;;;;;;;;5008835;28;20029;-90
2022/05/02 02:31:11;;;;;;;4.10;2.85;;;;;;;;;;5005551;28;20026;-89
2022/05/02 02:33:40;;;;;;;3.17;2.20;;;;;;;;;;5006978;28;20255;-89
2022/05/02 02:36:06;;;;;;;4.80;2.20;;;;;;;;;;5008095;28;20152;-88
2022/05/02 02:38:32;;;;;;;5.07;3.13;;;;;;;;;;4994632;28;20045;-89
2022/05/02 02:40:58;;;;;;;5.75;3.78;;;;;;;;;;5010719;28;20102;-90
2022/05/02 02:43:24;;;;;;;4.43;3.17;;;;;;;;;;5011010;28;20117;-89
2022/05/02 02:45:50;;;;;;;5.03;3.38;;;;;;;;;;5008985;28;20846;-90
2022/05/02 02:48:16;;;;;;;8.85;3.13;;;;;;;;;;5009888;28;20033;-89
2022/05/02 02:50:42;;;;;;;4.13;2.13;;;;;;;;;;5012464;28;20034;-90
2022/05/02 02:53:08;;;;;;;6.93;3.08;;;;;;;;;;5012579;28;20113;-89
2022/05/02 02:55:34;;;;;;;4.85;3.05;;;;;;;;;;5012693;28;20101;-89
2022/05/02 02:58:00;;;;;;;4.45;2.63;;;;;;;;;;5011205;28;20080;-90
2022/05/02 03:00:26;;;;;;;2.70;2.20;;;;;;;;;;5010626;28;20065;-88
2022/05/02 03:02:52;;;;;;;6.50;3.75;;;;;;;;;;5010849;28;20120;-91
2022/05/02 03:08:04;;;;;;;6.95;2.75;;;;;;;;;;4994187;28;20044;-90
2022/05/02 03:10:30;;;;;;;5.57;2.53;;;;;;;;;;4998025;28;20030;-89
2022/05/02 03:12:56;;;;;;;5.03;3.20;;;;;;;;;;5001772;28;20114;-89
2022/05/02 03:15:23;;;;;;;5.43;2.67;;;;;;;;;;4999167;28;20373;-90
2022/05/02 03:17:49;;;;;;;7.00;2.33;;;;;;;;;;4996209;28;20088;-89
2022/05/02 03:20:15;;;;;;;9.32;3.47;;;;;;;;;;5001165;28;20057;-91
2022/05/02 03:22:41;;;;;;;3.13;2.40;;;;;;;;;;5012416;28;20077;-91
2022/05/02 03:25:07;;;;;;;3.15;1.88;;;;;;;;;;5012263;28;20118;-90
2022/05/02 03:27:33;;;;;;;8.90;3.83;;;;;;;;;;4998058;28;20093;-89
2022/05/02 03:29:59;;;;;;;3.58;2.45;;;;;;;;;;4992296;28;20054;-89
2022/05/02 03:32:25;;;;;;;7.10;3.10;;;;;;;;;;4993881;28;20061;-89
2022/05/02 03:34:51;;;;;;;9.65;2.47;;;;;;;;;;4993203;28;20546;-90
2022/05/02 03:37:17;;;;;;;9.48;4.00;;;;;;;;;;4992166;28;20057;-89
2022/05/02 03:39:43;;;;;;;5.90;2.65;;;;;;;;;;5000410;28;20026;-90
2022/05/02 03:42:09;;;;;;;5.30;2.35;;;;;;;;;;4992776;28;20123;-91
2022/05/02 03:44:35;;;;;;;5.22;3.50;;;;;;;;;;4995189;28;20030;-90
2022/05/02 03:47:01;;;;;;;6.72;2.30;;;;;;;;;;4993414;28;20490;-90
2022/05/02 03:49:27;;;;;;;4.32;2.63;;;;;;;;;;5010689;28;20065;-89
2022/05/02 03:51:53;;;;;;;4.95;2.97;;;;;;;;;;5011506;28;20032;-90
2022/05/02 03:54:19;;;;;;;4.65;3.15;;;;;;;;;;5010266;28;20026;-89
2022/05/02 03:56:45;;;;;;;4.38;2.50;;;;;;;;;;5011827;28;20053;-91
2022/05/02 03:59:11;;;;;;;5.00;2.95;;;;;;;;;;4994265;28;20113;-90
2022/05/02 04:01:40;;;;;;;6.32;3.88;;;;;;;;;;5007552;28;20034;-90
2022/05/02 04:04:06;;;;;;;5.75;2.20;;;;;;;;;;4991947;28;20038;-90
2022/05/02 04:06:31;;;;;;;4.63;2.80;;;;;;;;;;5006928;28;20026;-90
2022/05/02 04:08:58;;;;;;;6.57;2.78;;;;;;;;;;5010127;28;20042;-90
2022/05/02 04:11:23;;;;;;;2.10;1.88;;;;;;;;;;5005693;28;20571;-90
2022/05/02 04:13:50;;;;;;;6.35;2.40;;;;;;;;;;4990221;28;20030;-89
2022/05/02 04:16:16;;;;;;;5.97;3.67;;;;;;;;;;4992110;28;20054;-91
2022/05/02 04:18:43;;;;;;;3.42;3.10;;;;;;;;;;5008065;28;20053;-89
2022/05/02 04:21:09;;;;;;;5.20;2.85;;;;;;;;;;5008899;28;20505;-91
2022/05/02 04:23:35;;;;;;;3.53;2.67;;;;;;;;;;5008352;28;20049;-91
2022/05/02 04:26:01;;;;;;;6.95;2.50;;;;;;;;;;5008053;28;20045;-90
2022/05/02 04:28:28;;;;;;;3.80;2.65;;;;;;;;;;5011756;28;20030;-90
2022/05/02 04:30:54;;;;;;;3.35;3.05;;;;;;;;;;5011816;28;20022;-91
2022/05/02 04:33:20;;;;;;;14.15;4.20;;;;;;;;;;5009319;28;20032;-89
2022/05/02 04:35:46;;;;;;;4.50;2.85;;;;;;;;;;5014183;28;20034;-89
2022/05/02 04:38:12;;;;;;;6.57;3.30;;;;;;;;;;5014134;28;20037;-90
2022/05/02 04:40:38;;;;;;;9.93;2.85;;;;;;;;;;5014078;28;20058;-90
2022/05/02 04:43:04;;;;;;;7.22;3.70;;;;;;;;;;5015050;28;20096;-89
2022/05/02 04:45:30;;;;;;;4.03;2.78;;;;;;;;;;5000557;28;20036;-89
2022/05/02 04:47:57;;;;;;;6.07;3.20;;;;;;;;;;5005627;28;20029;-91
2022/05/02 04:50:23;;;;;;;3.42;2.63;;;;;;;;;;5011112;28;20456;-89
2022/05/02 04:52:49;;;;;;;3.72;2.92;;;;;;;;;;5014930;28;20036;-90
2022/05/02 04:55:15;;;;;;;5.50;3.20;;;;;;;;;;5012601;28;20041;-90
2022/05/02 04:57:41;;;;;;;5.50;2.97;;;;;;;;;;5010478;28;20072;-92
2022/05/02 05:00:07;;;;;;;17.10;6.75;;;;;;;;;;5012290;28;20452;-90
2022/05/02 05:02:34;;;;;;;16.92;6.13;;;;;;;;;;5014175;28;20113;-90
2022/05/02 05:05:00;;;;;;;9.27;4.25;;;;;;;;;;5004589;28;20101;-91
2022/05/02 05:07:26;;;;;;;11.35;3.60;;;;;;;;;;5007418;28;20034;-90
2022/05/02 05:09:52;;;;;;;5.93;3.28;;;;;;;;;;5003049;28;20324;-90
2022/05/02 05:12:46;;;;;;;3.40;2.25;;;8.20;87.90;;;;;;5012178;28;20030;-90
2022/05/02 05:18:11;;;;;;;5.55;3.03;;;;;;;;;;5001701;28;20518;-89
2022/05/02 05:21:07;;;;;;;6.97;3.85;;;8.10;87.70;;;;;;5004799;28;20026;-87
2022/05/02 05:24:00;;;;;;;10.93;3.25;;;;;;;;;;5002763;28;20035;-87
2022/05/02 05:26:37;;;;;;;6.20;3.03;;;8.10;88.40;;;;;;5006212;28;20050;-87
2022/05/02 05:29:35;;;;;;;6.53;3.60;;;8.20;88.60;;;;;;4982599;28;23528;-87
2022/05/02 05:32:24;;;;;;;5.45;3.10;;;;;;;;;;5004450;28;20018;-87
2022/05/02 05:35:04;;;;;;;5.55;3.00;;;;;;;;;;4998113;28;20075;-88
2022/05/02 05:37:48;;;;;;;10.05;4.00;;;;;;;;;;5005959;28;20144;-88
2022/05/02 05:40:27;;;;;;;6.65;3.10;;;8.70;87.80;;;;;;5007138;28;20648;-88
2022/05/02 05:43:05;;;;;;;5.97;3.05;;;;;;;;;;4985983;28;20533;-84
2022/05/02 05:45:43;;;;;;;7.70;4.10;;;;;;;;;;4998563;28;20038;-82
2022/05/02 05:48:28;;;;;;;7.85;4.80;;;;;;;;;;4987010;28;20049;-88
2022/05/02 05:51:05;;;;;;;6.95;3.25;;;;;;;;;;5005794;28;20040;-87
2022/05/02 05:53:34;;;;;;;5.57;3.33;;;;;;;;;;5006190;28;20029;-88
2022/05/02 05:56:07;;;;;;;7.18;3.20;;;;;;;;;;4989084;28;20046;-87
2022/05/02 05:59:09;;;;;;;6.70;3.03;;;10.00;85.20;;;;;;5008149;28;20068;-87
2022/05/02 06:01:55;;;;;;;5.55;3.22;;;;;;;;;;5008295;28;20032;-86
2022/05/02 06:04:22;;;;;;;7.80;3.33;;;;;;;;;;4986817;28;20086;-86
2022/05/02 06:06:48;;;;;;;10.02;3.22;;;;;;;;;;4980912;28;20023;-86
2022/05/02 06:09:15;;;;;;;6.90;4.25;;;10.40;83.00;;;;;;4978021;28;20472;-87
2022/05/02 06:11:45;;;;;;;5.13;3.42;;;;;;;;;;4989711;28;20369;-86
2022/05/02 06:14:13;;;;;;;6.63;2.78;;;;;;;;;;4989791;28;20041;-86
2022/05/02 06:19:28;;;;;;;3.47;3.05;;;;;;;;;;4990239;28;20061;-87
2022/05/02 06:21:54;;;;;;;5.60;3.72;;;;;;;;;;4980472;28;20026;-88
2022/05/02 06:24:26;;;;;;;4.55;3.13;;;11.20;84.40;;;;;;4979221;28;20035;-79
2022/05/02 06:26:52;;;;;;;5.80;3.28;;;;;;;;;;4988065;28;20454;-80
2022/05/02 06:29:20;;;;;;;6.97;3.75;;;11.30;84.80;;;;;;4974808;28;20037;-81
2022/05/02 06:31:48;;;;;;;8.85;4.13;;;;;;;;;;4982049;28;20392;-80
2022/05/02 06:34:15;;;;;;;14.45;4.38;;;;;;;;;;4977653;28;20072;-81
2022/05/02 06:36:42;;;;;;;4.95;3.47;;;;;;;;;;4980712;28;20057;-80
2022/05/02 06:39:15;;;;;;;8.05;4.20;;;;;;;;;;4983164;28;20088;-80
2022/05/02 06:41:59;;;;;;;4.78;3.08;;;12.50;81.30;;;;;;4985614;28;20495;-80
2022/05/02 06:44:25;;;;;;;9.25;3.83;;;;;;;;;;4977037;28;20125;-82
2022/05/02 06:47:06;;;;;;;7.97;4.50;;;;;;;;;;4985419;28;20121;-80
2022/05/02 06:49:34;;;;;;;6.35;3.05;;;13.30;79.50;;;;;;4986885;28;20034;-80
2022/05/02 06:52:03;;;;;;;5.80;3.78;;;;;;;;;;4980890;28;20074;-80
2022/05/02 06:54:28;;;;;;;;;;;;;;;;;;4980251;28;20503;-81
2022/05/02 06:57:10;;;;;;;6.00;3.28;;;;;;;;;;4978652;28;19910;-80
2022/05/02 06:59:54;;;;;;;7.57;3.67;;;;;;;;;;4985568;28;20534;-78
2022/05/02 07:02:26;;;;;;;5.90;3.15;;;;;;;;;;4982246;28;20058;-80
2022/05/02 07:04:53;;;;;;;6.22;2.95;;;;;;;;;;4977723;28;20034;-78
2022/05/02 07:07:19;;;;;;;6.40;3.30;;;;;;;;;;4980929;28;20027;-80
2022/05/02 07:10:12;;;;;;;6.25;3.17;;;19.70;57.50;;;;;;4972813;28;20038;-80
2022/05/02 07:13:01;;;;;;;5.72;3.15;;;;;;;;;;4980176;28;20439;-80
2022/05/02 07:15:27;;;;;;;9.70;3.33;;;;;;;;;;4982155;28;20089;-81
2022/05/02 07:18:05;;;;;;;3.70;2.72;;;22.50;49.30;;;;;;4985283;28;20062;-80
2022/05/02 07:20:34;;;;;;;4.43;3.25;;;;;;;;;;4982871;28;20057;-80
2022/05/02 07:23:29;;;;;;;5.47;2.85;;;24.00;44.60;;;;;;4985460;28;20793;-81
2022/05/02 07:26:06;;;;;;;7.33;3.03;;;23.90;43.50;;;;;;4983175;28;20083;-80
2022/05/02 07:28:52;;;;;;;5.40;3.17;;;;;;;;;;4990799;28;20032;-81
2022/05/02 07:31:22;;;;;;;3.47;2.33;;;24.30;42.80;;;;;;4981686;28;20224;-81
2022/05/02 07:33:50;;;;;;;4.38;2.55;;;24.40;41.60;;;;;;4989806;28;20034;-82
2022/05/02 07:36:17;;;;;;;4.20;2.25;;;;;;;;;;4982992;28;20026;-81
2022/05/02 07:38:47;;;;;;;;;;;24.70;41.00;;;;;;4991120;28;20045;-81
2022/05/02 07:41:24;;;;;;;6.50;2.10;;;;;;;;;;4998366;28;19920;-82
2022/05/02 07:43:59;;;;;;;3.50;2.00;;;25.00;40.40;;;;;;4984689;28;20088;-81
2022/05/02 07:46:38;;;;;;;4.13;2.35;;;25.90;40.20;;;;;;4982894;28;20022;-81
2022/05/02 07:49:06;;;;;;;7.95;2.78;;;25.90;39.70;;;;;;4996940;28;20053;-81
2022/05/02 07:51:32;;;;;;;4.18;2.22;;;25.80;39.10;;;;;;4981757;28;20105;-84
2022/05/02 07:54:00;;;;;;;4.60;2.53;;;26.00;39.10;;;;;;4985440;28;20503;-88
2022/05/02 07:56:27;;;;;;;6.00;2.53;;;;;;;;;;4984653;28;20132;-88
2022/05/02 07:58:54;;;;;;;5.43;2.70;;;26.40;38.10;;;;;;4985789;28;20038;-88
2022/05/02 08:01:24;;;;;;;4.57;2.30;;;26.50;38.50;;;;;;4986854;28;20030;-86
2022/05/02 08:03:51;;;;;;;6.55;2.35;;;26.40;39.80;;;;;;4986662;28;20040;-87
2022/05/02 08:06:18;;;;;;;3.50;2.45;;;;;;;;;;4983651;28;20410;-85
2022/05/02 08:09:11;;;;;;;5.20;2.45;;;26.30;38.00;;;;;;4992636;28;20410;-86
2022/05/02 08:12:03;;;;;;;3.90;2.45;;;26.00;38.70;;;;;;4994365;28;20077;-85
2022/05/02 08:14:52;;;;;;;3.72;1.58;;;26.40;38.70;;;;;;4986114;28;20056;-85
2022/05/02 08:17:45;;;;;;;3.03;1.55;;;26.50;38.10;;;;;;4995443;28;20046;-90
2022/05/02 08:20:27;;;;;;;5.88;2.50;;;;;;;;;;5006523;28;20074;-91
2022/05/02 08:28:45;;;;;;;4.78;2.53;;;;;;;;;;5006368;28;20040;-87
2022/05/02 08:31:21;;;;;;;3.97;1.52;;;;;;;;;;5009861;28;20034;-91
2022/05/02 08:33:58;;;;;;;4.82;2.38;;;27.80;35.60;;;;;;5006625;28;20041;-86
2022/05/02 08:36:47;;;;;;;4.07;2.50;;;;;;;;;;5003044;28;20038;-86
2022/05/02 08:39:14;;;;;;;4.38;2.17;;;;;;;;;;5011541;28;20128;-91
2022/05/02 08:41:40;;;;;;;;;;;;;;;;;;5005800;28;20072;-89
2022/05/02 08:44:06;;;;;;;3.97;2.00;;;;;;;;;;4989268;28;19920;-84
2022/05/02 08:47:02;;;;;;;2.30;1.20;;;28.60;34.20;;;;;;5010763;28;20026;-85
2022/05/02 08:49:36;;;;;;;2.83;1.60;;;;;;;;;;4988595;28;20042;-86
2022/05/02 08:52:21;;;;;;;4.20;2.30;;;;;;;;;;4989192;28;20381;-88
2022/05/02 08:54:48;;;;;;;9.50;1.55;;;;;;;;;;4981798;28;20034;-87
2022/05/02 08:57:32;;;;;;;3.08;1.45;;;28.50;32.80;;;;;;4995976;28;20021;-94
2022/05/02 09:00:43;;;;;;;10.07;2.92;;;29.00;33.70;;;;;;5002752;28;20046;-78
2022/05/02 09:03:09;;;;;;;2.70;1.52;;;;;;;;;;4987261;28;20038;-85
2022/05/02 09:05:47;;;;;;;3.80;2.65;;;;;;;;;;4988159;28;20018;-86
2022/05/02 09:08:13;;;;;;;3.30;1.85;;;;;;;;;;5008867;28;20030;-78
2022/05/02 09:10:58;;;;;;;3.20;2.25;;;;;;;;;;4996085;28;20520;-79
2022/05/02 09:14:12;;;;;;;2.17;1.58;;;29.30;32.40;;;;;;4992206;28;20080;-80
2022/05/02 09:16:46;;;;;;;5.05;1.48;;;;;;;;;;4987201;28;20026;-78
2022/05/02 09:19:32;;;;;;;2.70;1.23;;;28.40;33.90;;;;;;4990824;28;20499;-79
2022/05/02 09:21:58;;;;;;;6.43;1.90;;;;;;;;;;5002440;28;20030;-79
2022/05/02 09:24:39;;;;;;;3.92;1.77;;;;;;;;;;4985345;28;20057;-77
2022/05/02 09:27:24;;;;;;;5.63;1.90;;;;;;;;;;4987422;28;20112;-79
2022/05/02 09:30:12;;;;;;;5.47;1.80;;;29.40;31.10;;;;;;4984238;28;20500;-78
2022/05/02 09:32:45;;;;;;;3.42;1.95;;;;;;;;;;4988741;28;20541;-78
2022/05/02 09:35:17;;;;;;;2.83;1.58;;;;;;;;;;4983629;28;20389;-78
2022/05/02 09:37:57;;;;;;;5.45;1.48;;;;;;;;;;4995134;28;20371;-79
2022/05/02 09:40:35;;;;;;;17.63;2.40;;;29.90;31.20;;;;;;4987849;28;20949;-79
2022/05/02 09:43:10;;;;;;;3.58;1.05;;;;;;;;;;4986460;28;20038;-79
2022/05/02 09:51:43;;;;;;;1.92;1.48;;;29.70;46.40;;;;;;4981369;28;20089;-77
2022/05/02 09:56:37;;;;;;;5.28;1.33;;;29.10;37.70;;;;;;4985468;28;20034;-84
2022/05/02 09:57:10;;;;;;;1.65;0.95;;;;;;;;;;4986586;28;20030;-89
2022/05/02 09:59:40;;;;;;;3.40;1.23;;;;;;;;;;4987488;28;20092;-85
2022/05/02 10:02:12;;;;;;;2.80;1.40;;;;;;;;;;4987199;28;20031;-77
2022/05/02 10:05:07;;;;;;;2.88;1.20;;;;;;;;;;4982106;28;20233;-81
2022/05/02 10:07:37;;;;;;;2.33;1.08;;;;;;;;;;4980661;28;20050;-82
2022/05/02 10:10:05;;;;;;;1.27;1.13;;;;;;;;;;4977542;28;20113;-84
2022/05/02 10:12:31;;;;;;;3.88;1.55;;;;;;;;;;4988727;28;20041;-82
2022/05/02 10:15:30;;;;;;;3.08;1.40;;;30.00;31.20;;;;;;4991567;28;20475;-84
2022/05/02 10:18:14;;;;;;;4.20;1.80;;;30.50;31.00;;;;;;4976402;28;20042;-82
2022/05/02 10:21:01;;;;;;;3.50;2.28;;;30.20;30.70;;;;;;4984867;28;20026;-83
2022/05/02 10:23:51;;;;;;;7.35;1.58;;;;;;;;;;4980497;28;20038;-82
2022/05/02 10:26:40;;;;;;;2.15;1.13;;;;;;;;;;4980894;28;20030;-82
2022/05/02 10:29:06;;;;;;;6.05;1.55;;;;;;;;;;4998313;28;20122;-82
2022/05/02 10:31:38;;;;;;;2.37;1.20;;;;;;;;;;4990149;28;20121;-81
2022/05/02 10:34:04;;;;;;;3.50;1.52;;;;;;;;;;4984983;28;20129;-81
2022/05/02 10:36:36;;;;;;;2.05;1.15;;;;;;;;;;4982055;28;20081;-80
2022/05/02 10:39:06;;;;;;;4.03;1.73;;;;;;;;;;4989375;28;20147;-80
2022/05/02 10:41:45;;;;;;;7.10;1.67;;;;;;;;;;4985179;28;20559;-82
2022/05/02 10:44:17;;;;;;;8.35;1.60;;;29.30;30.50;;;;;;4979345;28;20541;-80
2022/05/02 10:46:44;;;;;;;6.45;1.58;;;;;;;;;;4982852;28;20049;-81
2022/05/02 10:49:36;;;;;;;13.93;3.63;;;28.90;31.10;;;;;;4985916;28;20062;-81
2022/05/02 10:52:15;;;;;;;4.55;1.60;;;;;;;;;;4984925;28;20062;-82
2022/05/02 10:54:46;;;;;;;4.55;1.48;;;;;;;;;;4984923;28;20089;-82
2022/05/02 10:57:25;;;;;;;3.75;1.38;;;;;;;;;;4976173;28;20150;-81
2022/05/02 10:59:53;;;;;;;2.20;1.70;;;27.70;30.90;;;;;;4981054;28;20045;-82
2022/05/02 11:02:36;;;;;;;4.88;1.65;;;;;;;;;;4984938;28;20037;-81
2022/05/02 11:05:07;;;;;;;3.15;1.40;;;;;;;;;;4979481;28;20053;-81
2022/05/02 11:07:40;;;;;;;4.75;1.80;;;;;;;;;;4986996;28;20037;-81
2022/05/02 11:10:13;;;;;;;6.75;1.63;;;;;;;;;;4986668;28;20030;-79
2022/05/02 11:12:44;;;;;;;2.20;1.42;;;;;;;;;;4998808;28;20443;-81
2022/05/02 11:15:17;;;;;;;5.68;2.28;;;;;;;;;;4983849;28;20122;-81
2022/05/02 11:17:51;;;;;;;5.60;2.47;;;;;;;;;;4999475;28;20038;-80
2022/05/02 11:20:45;;;;;;;2.20;1.40;;;;;;;;;;4992385;28;20049;-79
2022/05/02 11:23:11;;;;;;;3.72;2.13;;;;;;;;;;4973478;28;20045;-81
2022/05/02 11:25:40;;;;;;;3.72;2.10;;;;;;;;;;4982458;28;20113;-83
2022/05/02 11:28:25;;;;;;;2.72;1.90;;;;;;;;;;4982116;28;20233;-86
2022/05/02 11:30:56;;;;;;;4.25;1.65;;;;;;;;;;4980485;28;20030;-90
2022/05/02 11:33:34;;;;;;;3.35;1.50;;;;;;;;;;4984599;28;20038;-81
2022/05/02 11:36:02;;;;;;;2.97;1.92;;;;;;;;;;4979924;28;20030;-83
2022/05/02 11:38:42;;;;;;;5.75;2.63;;;;;;;;;;4974237;28;20057;-87
2022/05/02 11:41:22;;;;;;;2.78;1.75;;;;;;;;;;4982156;28;20136;-86
2022/05/02 11:43:48;;;;;;;3.15;2.10;;;;;;;;;;4983181;28;20038;-82
2022/05/02 11:46:24;;;;;;;3.08;2.05;;;24.80;38.80;;;;;;4982551;28;20117;-83
2022/05/02 11:48:58;;;;;;;3.17;2.00;;;;;;;;;;4985161;28;20038;-83
2022/05/02 11:51:32;;;;;;;2.92;1.63;;;;;;;;;;4981031;28;20428;-83
2022/05/02 11:53:59;;;;;;;5.10;2.65;;;;;;;;;;4989660;28;20495;-81
2022/05/02 11:56:30;;;;;;;5.15;2.05;;;;;;;;;;4980046;28;20038;-82
2022/05/02 11:59:04;;;;;;;4.88;2.70;;;;;;;;;;4977876;28;20034;-81
2022/05/02 12:01:37;;;;;;;3.70;1.58;;;;;;;;;;4987128;28;20030;-82
2022/05/02 12:04:04;;;;;;;2.38;1.90;;;;;;;;;;4986001;28;20030;-82
2022/05/02 12:06:36;;;;;;;4.20;2.30;;;;;;;;;;4978033;28;20057;-81
2022/05/02 12:09:03;;;;;;;5.95;2.65;;;;;;;;;;4982477;28;20053;-82
2022/05/02 12:11:31;;;;;;;4.03;1.77;;;;;;;;;;4986194;28;20092;-81
2022/05/02 12:13:57;;;;;;;3.63;2.05;;;;;;;;;;4980139;28;20462;-81
2022/05/02 12:16:23;;;;;;;2.97;1.35;;;;;;;;;;4986431;28;20031;-81
2022/05/02 12:18:52;;;;;;;7.10;1.55;;;;;;;;;;4987969;28;20053;-83
2022/05/02 12:21:31;;;;;;;3.33;2.67;;;22.70;40.30;;;;;;4984513;28;20057;-81
2022/05/02 12:23:58;;;;;;;2.60;1.88;;;23.00;40.20;;;;;;4985610;28;20046;-82
2022/05/02 12:26:25;;;;;;;3.33;2.00;;;;;;;;;;4980445;28;20121;-82
2022/05/02 12:28:58;;;;;;;5.87;1.90;;;23.00;39.10;;;;;;4975817;28;20645;-81
2022/05/02 12:31:36;;;;;;;2.88;1.63;;;23.20;40.30;;;;;;4985569;28;20273;-81
2022/05/02 12:34:06;;;;;;;5.85;2.35;;;;;;;;;;4983418;28;20037;-82
2022/05/02 12:36:39;;;;;;;5.90;1.83;;;;;;;;;;4998553;28;20566;-80
2022/05/02 12:39:06;;;;;;;3.78;2.03;;;;;;;;;;4979372;28;20042;-83
2022/05/02 12:41:43;;;;;;;3.55;2.17;;;;;;;;;;4985199;28;20557;-82
2022/05/02 12:44:11;;;;;;;4.80;3.20;;;;;;;;;;4979104;28;20112;-84
2022/05/02 12:46:40;;;;;;;4.68;3.13;;;23.20;39.60;;;;;;4985750;28;20534;-82
2022/05/02 12:49:14;;;;;;;4.75;2.35;;;23.20;40.70;;;;;;4991382;28;20058;-82
2022/05/02 12:51:49;;;;;;;4.30;1.95;;;;;;;;;;4973851;28;20069;-83
2022/05/02 12:54:15;;;;;;;3.92;2.58;;;;;;;;;;4978771;28;20030;-82
2022/05/02 13:02:34;;;;;;;21.75;2.97;;;;;;;;;;4988922;28;20054;-83
2022/05/02 13:05:01;;;;;;;5.15;2.33;;;;;;;;;;4986352;28;20088;-83
2022/05/02 13:07:28;;;;;;;7.88;3.58;;;;;;;;;;4991191;28;20054;-82
2022/05/02 13:09:54;;;;;;;9.05;5.18;;;;;;;;;;4979235;28;20471;-83
2022/05/02 13:12:22;;;;;;;5.07;2.47;;;22.30;41.60;;;;;;4988024;28;20170;-82
2022/05/02 13:14:49;;;;;;;4.10;2.40;;;;;;;;;;4989691;28;20045;-83
2022/05/02 13:17:16;;;;;;;10.25;1.95;;;;;;;;;;4982674;28;20443;-82
2022/05/02 13:19:43;;;;;;;7.25;1.70;;;;;;;;;;4985241;28;20073;-84
2022/05/02 13:22:10;;;;;;;7.90;2.65;;;;;;;;;;4987209;28;20570;-83
2022/05/02 13:24:37;;;;;;;2.95;1.90;;;;;;;;;;4989305;28;20034;-83
2022/05/02 13:27:21;;;;;;;4.22;2.60;;;22.40;41.20;;;;;;4983231;28;20535;-83
2022/05/02 13:30:08;;;;;;;7.53;2.60;;;22.50;44.00;;;;;;4982287;28;20104;-83
2022/05/02 13:32:41;;;;;;;3.53;2.67;;;;;;;;;;4986567;28;20566;-83
2022/05/02 13:35:10;;;;;;;4.93;3.25;;;;;;;;;;4985923;28;20045;-84
2022/05/02 13:37:40;;;;;;;3.63;1.88;;;;;;;;;;4982973;28;20229;-83
2022/05/02 13:40:08;;;;;;;3.63;1.30;;;;;;;;;;4992836;28;20453;-83
2022/05/02 13:42:53;;;;;;;4.50;2.35;;;;;;;;;;4979596;28;20054;-82
2022/05/02 13:45:19;;;;;;;2.60;1.63;;;;;;;;;;4986755;28;20131;-84
2022/05/02 13:47:56;;;;;;;7.10;1.65;;;;;;;;;;4988826;28;20129;-81
2022/05/02 13:50:26;;;;;;;2.78;1.58;;;22.10;44.00;;;;;;4990729;28;20080;-81
2022/05/02 13:52:52;;;;;;;2.80;1.65;;;;;;;;;;4988418;28;20503;-82
2022/05/02 13:55:29;;;;;;;4.30;1.55;;;;;;;;;;4986251;28;20045;-81
2022/05/02 13:57:58;;;;;;;5.95;1.33;;;;;;;;;;4989801;28;20073;-79
2022/05/02 14:03:41;;;;;;;3.25;1.45;;;21.70;43.80;;;;;;4983537;28;20031;-82
2022/05/02 14:06:12;;;;;;;2.33;1.77;;;;;;;;;;4981203;28;20121;-80
2022/05/02 14:08:39;;;;;;;3.33;1.92;;;;;;;;;;4986433;28;20030;-79
2022/05/02 14:11:06;;;;;;;4.72;2.33;;;21.30;44.60;;;;;;4986868;28;20109;-80
2022/05/02 14:13:32;;;;;;;3.08;1.52;;;;;;;;;;4992058;28;20093;-81
2022/05/02 14:16:08;;;;;;;3.33;2.10;;;;;;;;;;4987574;28;20079;-81
2022/05/02 14:18:48;;;;;;;4.38;1.88;;;;;;;;;;4988184;28;20066;-82
2022/05/02 14:21:14;;;;;;;3.58;2.38;;;;;;;;;;4991527;28;20034;-81
2022/05/02 14:23:59;;;;;;;11.02;6.45;;;;;;;;;;4982099;28;20096;-81
2022/05/02 14:26:29;;;;;;;2.58;1.95;;;;;;;;;;4983396;28;20053;-82
2022/05/02 14:28:56;;;;;;;1.95;1.58;;;;;;;;;;4986086;28;20101;-82
2022/05/02 14:31:32;;;;;;;3.33;1.67;;;;;;;;;;4986451;28;20026;-81
2022/05/02 14:34:04;;;;;;;3.08;1.80;;;;;;;;;;4985814;28;20117;-82
2022/05/02 14:36:31;;;;;;;5.40;2.08;;;;;;;;;;4980278;28;20161;-79
2022/05/02 14:38:58;;;;;;;4.78;1.80;;;;;;;;;;4983448;28;20048;-79
2022/05/02 14:41:24;;;;;;;2.95;1.75;;;;;;;;;;4987211;28;20049;-79
2022/05/02 14:43:50;;;;;;;7.00;1.83;;;;;;;;;;4987375;28;20034;-81
2022/05/02 14:46:20;;;;;;;2.58;1.75;;;;;;;;;;4994829;28;20030;-81
2022/05/02 14:48:47;;;;;;;3.30;1.95;;;;;;;;;;4984408;28;20026;-84
2022/05/02 14:51:13;;;;;;;2.03;1.52;;;;;;;;;;4985895;28;20029;-83
2022/05/02 14:53:41;;;;;;;2.90;2.17;;;;;;;;;;4975577;28;20030;-83
2022/05/02 14:56:12;;;;;;;6.63;4.05;;;;;;;;;;4983598;28;20034;-84
2022/05/02 14:58:39;;;;;;;2.95;2.10;;;;;;;;;;4986188;28;20034;-83
2022/05/02 15:01:08;;;;;;;5.75;1.77;;;;;;;;;;4986033;28;20040;-84
2022/05/02 15:03:40;;;;;;;4.25;1.48;;;;;;;;;;4984735;28;20458;-83
2022/05/02 15:06:07;;;;;;;5.18;1.95;;;20.80;44.00;;;;;;4982464;28;20034;-83
2022/05/02 15:08:33;;;;;;;;;;;;;;;;;;4993008;28;20038;-83
2022/05/02 15:11:32;;;;;;;2.78;1.80;;;20.80;46.30;;;;;;4992329;28;20506;-82
2022/05/02 15:14:17;;;;;;;2.40;1.98;;;;;;;;;;4981375;28;20034;-83
2022/05/02 15:16:43;;;;;;;4.47;1.77;;;;;;;;;;4982414;28;20492;-80
2022/05/02 15:19:37;;;;;;;2.13;1.50;;;20.70;45.00;;;;;;4980083;28;20049;-82